Latest Weather Observations for Munglinup West

IDW60801

Issued at 9:05 am WST Thursday 23 October 2014 (issued every 30 minutes, with the page automatically refreshed every 10 minutes)

About weather observations | Map of weather stations | Latest weather observations for WA | Other Formats
Station Details ID: 012044 Name: MUNGLINUP WEST Lat: -33.55 Lon: 120.70 Height: 220.0 m
Data from the previous 72 hours. | See also: Recent months at Munglinup West
Date/Time
WST
Temp
°C
App
Temp
°C
Dew
Point
Rel
Hum
%
Delta-T
°C
Wind Press
QNH
hPa
Press
MSL
hPa
Rain
since 9 am
mm
Dir
 
Spd
km/h
Gust
km/h
Spd
kts
Gust
kts
23/09:00am 20.4 16.8 12.9 62 4.3 NW 24 39 13 21 1012.2 1011.8 3.4
23/08:30am 19.6 16.0 13.1 66 3.7 NW 24 35 13 19 1012.0 1011.6 3.4
23/08:00am 18.6 15.0 13.2 71 3.1 NW 24 33 13 18 1012.2 1011.8 3.4
23/07:30am 17.4 14.5 13.9 80 2.0 NNW 22 30 12 16 1012.2 1011.8 3.4
23/07:00am 16.4 13.8 13.9 85 1.4 NW 20 32 11 17 1012.3 1011.9 3.4
23/06:30am 15.4 13.1 14.6 95 0.5 NW 20 28 11 15 1012.1 1011.7 3.4
23/06:00am 14.4 12.9 14.2 99 0.1 NW 15 22 8 12 1011.8 1011.4 3.4
23/05:30am 14.0 12.8 14.0 100 0.0 NNW 13 20 7 11 1011.4 1011.0 3.4
23/05:00am 14.2 12.7 14.2 100 0.0 NW 15 20 8 11 1011.2 1010.8 3.4
23/04:30am 14.7 13.4 14.7 100 0.0 NW 15 22 8 12 1011.4 1011.0 3.4
23/04:00am 14.9 14.4 14.9 100 0.0 NW 11 15 6 8 1011.3 1010.9 3.4
23/03:30am 15.4 15.8 15.4 100 0.0 NNW 7 15 4 8 1011.1 1010.7 3.4
23/03:00am 14.6 13.6 14.6 100 0.0 NNE 13 17 7 9 1010.9 1010.5 3.4
23/02:30am 14.1 13.7 14.1 100 0.0 NW 9 13 5 7 1011.1 1010.7 3.4
23/02:00am 14.5 13.5 14.5 100 0.0 N 13 17 7 9 1010.8 1010.4 3.0
23/01:30am 14.8 12.2 14.8 100 0.0 ENE 22 33 12 18 1010.5 1010.1 3.0
23/01:00am 15.1 12.2 15.1 100 0.0 E 24 35 13 19 1010.2 1009.8 3.0
23/12:30am 15.5 12.4 15.5 100 0.0 E 26 37 14 20 1010.5 1010.1 3.0
23/12:00am 15.9 14.1 15.9 100 0.0 E 20 30 11 16 1011.5 1011.1 3.0
 
Date/Time
WST
Temp
°C
App
Temp
°C
Dew
Point
Rel
Hum
%
Delta-T
°C
Wind Press
QNH
hPa
Press
MSL
hPa
Rain
since 9 am
mm
Dir
 
Spd
km/h
Gust
km/h
Spd
kts
Gust
kts
22/11:30pm 16.5 14.8 16.3 99 0.1 ESE 20 30 11 16 1011.9 1011.5 3.0
22/11:00pm 17.3 16.8 17.0 98 0.2 SE 15 20 8 11 1012.1 1011.7 3.0
22/10:30pm 17.4 17.4 17.1 98 0.2 SE 13 19 7 10 1012.2 1011.8 3.0
22/10:00pm 17.6 17.4 16.8 95 0.5 SSE 13 20 7 11 1013.0 1012.6 3.0
22/09:55pm 17.7 17.5 16.7 94 0.6 S 13 20 7 11 1013.1 1012.7 3.0
22/09:30pm 19.8 19.3 15.9 78 2.3 WSW 13 26 7 14 1015.2 1014.8 2.0
22/09:18pm 20.2 16.5 16.0 77 2.5 W 30 41 16 22 1015.3 1014.9 0.0
22/09:12pm 20.6 20.7 15.6 73 3.0 NW 9 20 5 11 1014.3 1014.0 0.0
22/09:00pm 20.9 19.1 15.4 71 3.3 ENE 19 26 10 14 1012.3 1011.9 0.0
22/08:30pm 20.9 18.1 15.4 71 3.3 ENE 24 35 13 19 1012.0 1011.6 0.0
22/08:00pm 21.0 18.2 15.3 70 3.4 ENE 24 32 13 17 1012.2 1011.8 0.0
22/07:30pm 21.3 18.9 15.4 69 3.5 ENE 22 32 12 17 1012.8 1012.4 0.0
22/07:00pm 21.3 19.5 15.4 69 3.5 ENE 19 28 10 15 1012.8 1012.4 0.0
22/06:30pm 22.2 20.4 15.5 66 4.0 ENE 19 30 10 16 1012.9 1012.5 0.0
22/06:00pm 23.3 21.0 15.6 62 4.7 ENE 22 30 12 16 1012.5 1012.1 0.0
22/05:30pm 24.7 21.7 15.9 58 5.4 ENE 26 37 14 20 1012.9 1012.5 0.0
22/05:00pm 24.5 22.2 15.7 58 5.4 E 22 32 12 17 1013.6 1013.2 0.0
22/04:30pm 24.9 22.2 15.5 56 5.7 ENE 24 35 13 19 1014.2 1013.9 0.0
22/04:00pm 26.0 22.9 15.7 53 6.3 ENE 26 35 14 19 1014.8 1014.5 0.0
22/03:30pm 26.0 23.4 16.0 54 6.2 ENE 24 37 13 20 1015.1 1014.7 0.0
22/03:00pm 26.0 24.0 16.5 55 5.9 ENE 22 35 12 19 1015.3 1014.9 0.0
22/02:30pm 25.3 23.6 16.2 57 5.6 ENE 20 33 11 18 1016.0 1015.6 0.0
22/02:00pm 25.6 23.7 16.7 58 5.5 ENE 22 32 12 17 1016.4 1016.0 0.0
22/01:30pm 25.2 23.4 16.9 60 5.2 ENE 22 35 12 19 1017.3 1016.9 0.0
22/01:00pm 24.6 22.4 16.8 62 4.8 ENE 24 37 13 20 1017.6 1017.3 0.0
22/12:30pm 23.7 21.8 16.7 65 4.3 ENE 22 30 12 16 1018.3 1018.0 0.0
22/12:00pm 23.1 21.5 16.6 67 4.0 ENE 20 30 11 16 1018.9 1018.6 0.0
22/11:30am 22.0 19.9 16.3 70 3.5 ENE 22 33 12 18 1019.5 1019.2 0.0
22/11:00am 20.9 19.6 15.7 72 3.1 ENE 17 32 9 17 1020.5 1020.1 0.0
22/10:30am 19.3 17.8 15.2 77 2.4 ENE 17 24 9 13 1021.2 1020.8 0.0
22/10:00am 18.2 16.6 15.1 82 1.8 ENE 17 26 9 14 1021.5 1021.2 0.0
22/09:30am 16.4 14.1 14.6 89 1.0 NE 20 26 11 14 1021.7 1021.4 0.0
22/09:00am 14.6 11.8 14.3 98 0.2 ENE 22 30 12 16 1021.7 1021.4 0.4
22/08:30am 13.9 10.6 13.9 100 0.0 NE 24 35 13 19 1021.7 1021.4 0.4
22/08:00am 13.3 10.2 13.3 100 0.0 NE 22 33 12 18 1021.8 1021.5 0.4
22/07:30am 13.3 - - - - ENE 28 37 15 20 1022.0 1021.7 0.4
22/07:00am 13.1 - - - - ENE 24 35 13 19 1022.2 1021.9 0.4
22/06:30am 12.3 - - - - ENE 20 28 11 15 1022.3 1022.0 0.4
22/06:00am 11.0 - - - - E 15 19 8 10 1022.3 1022.0 0.4
22/05:30am 10.6 - - - - E 11 15 6 8 1022.3 1022.0 0.4
22/05:00am 10.4 - - - - ENE 9 13 5 7 1022.2 1021.9 0.4
22/04:30am 10.4 8.5 10.4 100 0.0 NE 11 13 6 7 1022.0 1021.7 0.4
22/04:00am 10.6 8.3 10.6 100 0.0 ENE 13 17 7 9 1022.0 1021.7 0.2
22/03:30am 10.9 8.0 10.9 100 0.0 ENE 17 24 9 13 1021.8 1021.5 0.2
22/03:00am 11.1 8.6 11.1 100 0.0 ENE 15 19 8 10 1022.1 1021.8 0.2
22/02:30am 10.9 8.0 10.9 100 0.0 ENE 17 22 9 12 1021.9 1021.6 0.2
22/02:00am 10.7 8.1 10.7 100 0.0 E 15 19 8 10 1022.0 1021.7 0.2
22/01:30am 10.8 8.6 10.8 100 0.0 E 13 17 7 9 1022.4 1022.1 0.2
22/01:00am 10.5 8.6 10.5 100 0.0 ENE 11 13 6 7 1022.7 1022.4 0.2
22/12:30am 10.9 9.5 10.9 100 0.0 E 9 15 5 8 1023.0 1022.7 0.2
22/12:00am 11.2 9.9 11.2 100 0.0 ESE 9 13 5 7 1023.2 1022.9 0.2
 
Date/Time
WST
Temp
°C
App
Temp
°C
Dew
Point
Rel
Hum
%
Delta-T
°C
Wind Press
QNH
hPa
Press
MSL
hPa
Rain
since 9 am
mm
Dir
 
Spd
km/h
Gust
km/h
Spd
kts
Gust
kts
21/11:30pm 10.9 9.1 10.9 100 0.0 E 11 15 6 8 1023.5 1023.2 0.2
21/11:00pm 11.1 9.8 11.1 100 0.0 E 9 13 5 7 1023.6 1023.3 0.2
21/10:30pm 11.4 9.8 11.4 100 0.0 E 11 13 6 7 1023.9 1023.6 0.2
21/10:00pm 11.4 9.8 11.4 100 0.0 E 11 13 6 7 1024.1 1023.8 0.2
21/09:30pm 11.4 9.8 11.4 100 0.0 E 11 15 6 8 1024.5 1024.1 0.2
21/09:00pm 11.7 10.1 11.7 100 0.0 ESE 11 15 6 8 1024.8 1024.4 0.2
21/08:30pm 12.1 10.2 11.9 99 0.1 ESE 13 19 7 10 1024.8 1024.4 0.2
21/08:00pm 12.4 10.6 12.2 99 0.1 ESE 13 19 7 10 1024.8 1024.4 0.2
21/07:30pm 12.4 10.9 11.9 97 0.3 SE 11 15 6 8 1024.6 1024.2 0.2
21/07:00pm 12.8 11.3 12.0 95 0.4 SE 11 13 6 7 1024.3 1024.0 0.2
21/06:30pm 13.6 11.9 12.3 92 0.7 SE 13 17 7 9 1023.9 1023.6 0.2
21/06:00pm 14.8 12.8 12.7 87 1.2 SSE 15 19 8 10 1023.6 1023.3 0.2
21/05:30pm 16.3 14.3 12.7 79 2.0 SSE 15 20 8 11 1023.2 1022.9 0.2
21/05:00pm 17.5 15.5 12.8 74 2.6 SSE 15 22 8 12 1022.9 1022.6 0.2
21/04:30pm 18.4 16.2 13.3 72 2.9 SSE 17 24 9 13 1022.7 1022.4 0.2
21/04:00pm 18.0 16.5 13.1 73 2.8 SSE 13 19 7 10 1022.6 1022.3 0.2
21/03:30pm 18.2 16.7 13.1 72 2.9 SSE 13 22 7 12 1022.2 1021.9 0.2
21/03:00pm 18.3 16.2 13.6 74 2.7 S 17 24 9 13 1022.3 1022.0 0.2
21/02:30pm 18.8 17.1 13.6 72 3.0 S 15 24 8 13 1022.4 1022.1 0.2
21/02:00pm 17.6 15.0 13.3 76 2.4 S 19 26 10 14 1022.5 1022.2 0.2
21/01:30pm 18.2 16.3 14.3 78 2.3 S 17 24 9 13 1022.6 1022.3 0.2
21/01:00pm 18.5 16.8 13.6 73 2.8 S 15 20 8 11 1022.7 1022.4 0.2
21/12:30pm 18.6 17.1 13.2 71 3.1 SSW 13 22 7 12 1022.9 1022.6 0.0
21/12:00pm 18.7 17.3 13.3 71 3.1 SSW 13 19 7 10 1023.0 1022.7 0.0
21/11:30am 18.2 17.4 14.1 77 2.4 SW 11 19 6 10 1023.1 1022.8 0.0
21/11:00am 17.6 16.4 13.9 79 2.1 S 13 20 7 11 1023.1 1022.8 0.0
21/10:30am 17.8 17.3 13.9 78 2.2 SW 9 15 5 8 1023.2 1022.9 0.0
21/10:00am 17.4 17.5 14.5 83 1.7 WSW 7 11 4 6 1023.2 1022.9 0.0
21/09:30am 15.4 15.0 15.2 99 0.1 WSW 11 17 6 9 1023.2 1022.9 0.0
21/09:00am 14.2 13.5 14.2 100 0.0 W 11 17 6 9 1023.1 1022.8 7.2
21/08:30am 13.4 11.6 13.4 100 0.0 W 15 20 8 11 1023.0 1022.7 7.2
21/08:00am 13.2 - - - - W 15 20 8 11 1022.6 1022.3 7.2
21/07:30am 13.0 - - - - W 11 17 6 9 1022.2 1021.9 7.2
21/07:00am 12.6 10.9 12.6 100 0.0 W 13 19 7 10 1021.8 1021.5 7.2
21/06:30am 12.4 10.3 12.4 100 0.0 W 15 19 8 10 1021.4 1021.0 7.2
21/06:00am 12.3 10.6 12.3 100 0.0 W 13 19 7 10 1021.1 1020.7 7.0
21/05:30am 12.2 10.4 12.2 100 0.0 W 13 19 7 10 1020.6 1020.2 7.0
21/05:00am 12.1 10.3 12.1 100 0.0 W 13 19 7 10 1020.0 1019.6 7.0
21/04:30am 12.3 10.6 12.3 100 0.0 W 13 20 7 11 1019.8 1019.4 7.0
21/04:00am 12.3 10.9 12.3 100 0.0 W 11 15 6 8 1019.3 1019.0 7.0
21/03:30am 12.4 10.7 12.4 100 0.0 W 13 19 7 10 1019.0 1018.7 7.0
21/03:00am 12.5 10.4 12.5 100 0.0 W 15 19 8 10 1018.8 1018.5 7.0
21/02:30am 12.6 10.9 12.6 100 0.0 W 13 19 7 10 1018.6 1018.3 7.0
21/02:00am 12.6 10.6 12.6 100 0.0 W 15 19 8 10 1018.5 1018.2 7.0
21/01:30am 12.7 10.7 12.7 100 0.0 W 15 22 8 12 1018.7 1018.4 7.0
21/01:00am 12.9 11.0 12.9 100 0.0 W 15 20 8 11 1018.7 1018.4 7.0
21/12:30am 13.1 11.5 12.9 99 0.1 W 13 19 7 10 1018.5 1018.2 7.0
21/12:00am 13.2 11.3 13.0 99 0.1 W 15 24 8 13 1018.5 1018.2 7.0
 
Date/Time
WST
Temp
°C
App
Temp
°C
Dew
Point
Rel
Hum
%
Delta-T
°C
Wind Press
QNH
hPa
Press
MSL
hPa
Rain
since 9 am
mm
Dir
 
Spd
km/h
Gust
km/h
Spd
kts
Gust
kts
20/11:30pm 13.4 11.2 13.2 99 0.1 WSW 17 24 9 13 1018.2 1017.9 7.0
20/11:00pm 13.6 11.5 13.6 100 0.0 W 17 22 9 12 1018.5 1018.2 7.0
20/10:30pm 13.8 11.4 13.8 100 0.0 W 19 26 10 14 1018.6 1018.3 7.0
20/10:00pm 14.1 12.2 14.1 100 0.0 W 17 22 9 12 1018.5 1018.2 7.0
20/09:30pm 14.3 12.1 14.3 100 0.0 WSW 19 26 10 14 1018.5 1018.2 7.0
20/09:00pm 14.6 13.6 14.6 100 0.0 W 13 19 7 10 1018.4 1018.1 7.0
20/08:30pm 14.9 14.0 14.9 100 0.0 W 13 17 7 9 1018.3 1018.0 7.0
20/08:00pm 14.9 15.2 14.9 100 0.0 NW 7 11 4 6 1018.0 1017.7 7.0
20/07:30pm 15.3 15.7 15.3 100 0.0 WNW 7 13 4 7 1017.5 1017.1 7.0
20/07:00pm 15.3 16.3 15.3 100 0.0 WNW 4 7 2 4 1016.9 1016.5 6.8
20/06:30pm 15.4 16.0 15.4 100 0.0 W 6 9 3 5 1016.6 1016.2 6.2
20/06:00pm 15.6 16.1 15.6 100 0.0 SSW 7 11 4 6 1015.9 1015.5 5.2
20/05:30pm 15.8 14.9 15.8 100 0.0 SSW 15 19 8 10 1015.4 1015.0 5.2
20/05:00pm 16.0 15.9 16.0 100 0.0 WSW 11 19 6 10 1014.8 1014.5 5.2
20/04:30pm 15.4 14.5 14.9 97 0.3 SW 13 20 7 11 1014.6 1014.3 4.6
20/04:00pm 17.6 16.4 16.1 91 0.9 W 17 24 9 13 1013.9 1013.6 2.6
20/03:30pm 17.6 16.4 17.0 96 0.4 WSW 19 30 10 16 1013.5 1013.1 2.6
20/03:00pm 16.9 16.3 16.6 98 0.2 WSW 15 22 8 12 1013.2 1012.8 2.4
20/02:30pm 20.7 17.9 13.2 62 4.3 WNW 20 30 11 16 1012.4 1012.0 0.2
20/02:00pm 21.7 18.6 13.3 59 4.9 WNW 22 32 12 17 1012.3 1011.9 0.2
20/01:30pm 20.6 17.4 13.1 62 4.3 WNW 22 33 12 18 1012.5 1012.1 0.2
20/01:00pm 20.3 18.0 14.0 67 3.7 WNW 19 28 10 15 1012.6 1012.2 0.2
20/12:30pm 21.1 18.0 13.3 61 4.5 NW 22 32 12 17 1012.6 1012.2 0.2
20/12:00pm 19.3 15.6 12.6 65 3.8 NW 24 37 13 20 1012.6 1012.2 0.2
20/11:30am 17.8 14.7 13.5 76 2.5 NW 22 39 12 21 1012.7 1012.3 0.0
20/11:00am 17.7 14.9 13.2 75 2.6 NW 20 35 11 19 1012.8 1012.4 0.0
20/10:30am 18.7 16.1 13.1 70 3.2 NNW 19 28 10 15 1012.8 1012.4 0.0
20/10:00am 17.8 14.7 12.3 70 3.1 NNW 20 32 11 17 1013.0 1012.6 0.0
20/09:30am 17.2 13.4 12.3 73 2.7 NW 24 37 13 20 1013.1 1012.7 0.0

Other Formats:

Comma delimited format used in spreadsheet applications
http://www.bom.gov.au/fwo/IDW60801/IDW60801.95644.axf

JavaScript Object Notation format (JSON) in row-major order
http://www.bom.gov.au/fwo/IDW60801/IDW60801.95644.json